createdAt,value
2022-08-22T00:00:48.678Z,27.63
2022-08-22T00:02:53.348Z,29.77
2022-08-22T00:02:54.565Z,28.20
2022-08-22T00:03:34.927Z,27.66
2022-08-22T00:06:12.104Z,27.65
2022-08-22T00:08:54.163Z,27.66
2022-08-22T00:11:33.051Z,27.58
2022-08-22T00:14:14.481Z,27.56
2022-08-22T00:16:54.563Z,27.59
2022-08-22T00:19:35.170Z,27.61
2022-08-22T00:22:12.619Z,27.59
2022-08-22T00:24:48.594Z,27.59
2022-08-22T00:27:23.095Z,27.56
2022-08-22T00:30:07.914Z,27.55
2022-08-22T00:32:42.611Z,27.51
2022-08-22T00:35:20.339Z,27.52
2022-08-22T00:38:00.423Z,27.55
2022-08-22T00:40:47.058Z,27.55
2022-08-22T00:43:59.466Z,27.52
2022-08-22T00:46:52.462Z,27.49
2022-08-22T00:49:40.691Z,27.48
2022-08-22T00:52:53.699Z,27.45
2022-08-22T00:55:53.134Z,27.48
2022-08-22T00:58:52.424Z,27.43
2022-08-22T01:01:29.905Z,27.42
2022-08-22T01:04:22.577Z,27.41
2022-08-22T01:07:09.356Z,27.39
2022-08-22T01:09:52.881Z,27.41
2022-08-22T01:12:45.947Z,27.39
2022-08-22T01:15:22.005Z,27.35
2022-08-22T01:18:29.373Z,27.42
2022-08-22T01:21:52.439Z,27.38
2022-08-22T01:25:25.993Z,27.35
2022-08-22T01:28:39.628Z,27.35
2022-08-22T01:32:10.247Z,27.34
2022-08-22T01:35:25.274Z,27.31
2022-08-22T01:38:23.213Z,27.25
2022-08-22T01:41:19.920Z,27.20
2022-08-22T01:44:21.400Z,27.20
2022-08-22T01:47:00.595Z,27.16
2022-08-22T01:49:38.096Z,27.16
2022-08-22T01:52:12.295Z,27.12
2022-08-22T01:54:50.853Z,27.14
2022-08-22T01:57:19.238Z,27.11
2022-08-22T01:59:50.070Z,27.14
2022-08-22T02:02:46.058Z,27.18
2022-08-22T02:05:27.331Z,27.14
2022-08-22T02:08:03.317Z,27.11
2022-08-22T02:10:52.371Z,27.14
2022-08-22T02:13:51.067Z,27.16
2022-08-22T02:16:32.659Z,27.11
2022-08-22T02:19:28.441Z,27.15
2022-08-22T02:22:03.144Z,27.07
2022-08-22T02:24:51.054Z,27.08
2022-08-22T02:27:33.316Z,27.05
2022-08-22T02:30:08.871Z,27.02
2022-08-22T02:32:54.055Z,27.04
2022-08-22T02:35:30.839Z,26.98
2022-08-22T02:38:13.901Z,27.02
2022-08-22T02:40:53.342Z,27.00
2022-08-22T02:43:26.734Z,26.97
2022-08-22T02:46:02.340Z,26.97
2022-08-22T02:48:41.889Z,26.98
2022-08-22T02:51:20.886Z,26.98
2022-08-22T02:53:59.513Z,26.94
2022-08-22T02:56:34.880Z,26.92
2022-08-22T02:59:22.490Z,26.94
2022-08-22T03:01:51.395Z,26.87
2022-08-22T03:04:50.831Z,26.90
2022-08-22T03:07:41.154Z,26.87
2022-08-22T03:10:21.938Z,26.81
2022-08-22T03:13:02.805Z,26.79
2022-08-22T03:15:40.157Z,26.79
2022-08-22T03:18:25.761Z,26.74
2022-08-22T03:21:11.421Z,26.71
2022-08-22T03:23:46.500Z,26.70
2022-08-22T03:26:21.963Z,26.71
2022-08-22T03:29:00.106Z,26.71
2022-08-22T03:31:30.618Z,26.70
2022-08-22T03:34:22.442Z,26.71
2022-08-22T03:37:06.082Z,26.67
2022-08-22T03:39:47.685Z,26.64
2022-08-22T03:43:00.378Z,26.65
2022-08-22T03:45:55.590Z,26.54
2022-08-22T03:49:05.608Z,26.57
2022-08-22T03:51:51.528Z,26.59
2022-08-22T03:54:53.003Z,26.60
2022-08-22T03:58:06.548Z,26.60
2022-08-22T04:01:15.347Z,26.56
2022-08-22T04:04:27.287Z,26.59
2022-08-22T04:07:32.147Z,26.47
2022-08-22T04:10:31.000Z,26.50
2022-08-22T04:14:02.359Z,26.56
2022-08-22T04:17:11.768Z,26.56
2022-08-22T04:20:36.945Z,26.54
2022-08-22T04:23:35.700Z,26.56
2022-08-22T04:26:14.575Z,26.53
2022-08-22T04:28:48.974Z,26.56
2022-08-22T04:31:25.152Z,26.56
2022-08-22T04:34:01.206Z,26.60
2022-08-22T04:36:39.747Z,26.61
2022-08-22T04:39:15.308Z,26.60
2022-08-22T04:41:50.240Z,26.63
2022-08-22T04:44:26.242Z,26.64
2022-08-22T04:47:03.281Z,26.64
2022-08-22T04:49:39.858Z,26.64
2022-08-22T04:52:20.623Z,26.65
2022-08-22T04:55:09.552Z,26.64
2022-08-22T04:57:55.793Z,26.64
2022-08-22T05:00:23.604Z,26.64
2022-08-22T05:02:57.112Z,26.71
2022-08-22T05:05:35.557Z,26.71
2022-08-22T05:08:08.985Z,26.70
2022-08-22T05:10:44.332Z,26.73
2022-08-22T05:13:17.992Z,26.77
2022-08-22T05:15:49.755Z,26.74
2022-08-22T05:18:22.196Z,26.74
2022-08-22T05:23:56.903Z,26.81
2022-08-22T05:26:27.251Z,26.80
2022-08-22T05:29:02.389Z,26.84
2022-08-22T05:31:34.502Z,26.86
2022-08-22T05:34:09.836Z,26.91
2022-08-22T05:36:43.202Z,26.90
2022-08-22T05:39:16.619Z,26.92
2022-08-22T05:41:43.880Z,26.98
2022-08-22T05:44:21.116Z,27.05
2022-08-22T05:46:52.699Z,27.08
2022-08-22T05:49:29.656Z,27.11
2022-08-22T05:52:15.335Z,27.21
2022-08-22T05:54:52.044Z,27.25
2022-08-22T05:57:28.783Z,27.28
2022-08-22T06:00:06.163Z,27.32
2022-08-22T06:02:55.156Z,27.41
2022-08-22T06:05:28.907Z,27.41
2022-08-22T06:08:04.869Z,27.49
2022-08-22T06:10:42.096Z,27.56
2022-08-22T06:13:17.355Z,27.59
2022-08-22T06:16:05.727Z,27.67
2022-08-22T06:18:35.597Z,27.72
2022-08-22T06:21:06.634Z,27.79
2022-08-22T06:23:42.395Z,27.92
2022-08-22T06:26:20.613Z,28.03
2022-08-22T06:28:55.196Z,28.16
2022-08-22T06:31:30.491Z,28.23
2022-08-22T06:34:06.235Z,28.39
2022-08-22T06:36:38.794Z,28.47
2022-08-22T06:39:17.420Z,28.61
2022-08-22T06:41:52.387Z,28.63
2022-08-22T06:44:28.359Z,28.68
2022-08-22T06:47:01.078Z,28.76
2022-08-22T06:49:32.396Z,28.82
2022-08-22T06:52:06.443Z,28.82
2022-08-22T06:54:39.600Z,28.85
2022-08-22T06:57:26.525Z,28.82
2022-08-22T06:59:56.834Z,28.74
2022-08-22T07:02:36.611Z,28.72
2022-08-22T07:05:06.531Z,28.72
2022-08-22T07:07:36.141Z,28.78
2022-08-22T07:10:05.861Z,28.88
2022-08-22T07:12:37.117Z,28.98
2022-08-22T07:15:18.557Z,29.06
2022-08-22T07:17:58.233Z,29.04
2022-08-22T07:20:30.724Z,28.96
2022-08-22T07:23:04.622Z,29.01
2022-08-22T07:25:50.576Z,29.09
2022-08-22T07:28:51.633Z,29.20
2022-08-22T07:31:36.256Z,29.20
2022-08-22T07:34:25.232Z,29.26
2022-08-22T07:37:03.077Z,29.35
2022-08-22T07:39:36.432Z,29.43
2022-08-22T07:42:13.925Z,29.60
2022-08-22T07:45:02.643Z,29.74
2022-08-22T07:47:49.862Z,29.87
2022-08-22T07:50:25.356Z,30.05
2022-08-22T07:52:58.175Z,30.21
2022-08-22T07:55:26.768Z,30.31
2022-08-22T07:58:00.801Z,30.49
2022-08-22T08:00:29.828Z,30.72
2022-08-22T08:03:04.468Z,30.99
2022-08-22T08:05:36.089Z,31.22
2022-08-22T08:08:08.826Z,31.56
2022-08-22T08:10:42.810Z,31.82
2022-08-22T08:13:20.660Z,31.98
2022-08-22T08:15:50.449Z,31.94
2022-08-22T08:18:22.133Z,31.92
2022-08-22T08:20:52.814Z,32.07
2022-08-22T08:23:23.453Z,32.05
2022-08-22T08:26:04.960Z,32.12
2022-08-22T08:28:39.980Z,32.24
2022-08-22T08:31:20.635Z,32.39
2022-08-22T08:33:57.906Z,32.56
2022-08-22T08:36:38.991Z,32.73
2022-08-22T08:39:18.615Z,32.87
2022-08-22T08:42:24.407Z,32.91
2022-08-22T08:45:28.960Z,32.97
2022-08-22T08:48:43.983Z,33.02
2022-08-22T08:51:39.310Z,33.23
2022-08-22T08:54:31.711Z,33.48
2022-08-22T08:57:09.835Z,33.38
2022-08-22T08:59:53.236Z,33.30
2022-08-22T09:02:47.752Z,33.46
2022-08-22T09:05:51.300Z,33.62
2022-08-22T09:08:59.670Z,33.89
2022-08-22T09:12:11.275Z,34.22
2022-08-22T09:15:12.019Z,34.43
2022-08-22T09:18:43.751Z,34.83
2022-08-22T09:21:53.050Z,35.29
2022-08-22T09:25:06.793Z,35.79
2022-08-22T09:27:41.043Z,36.06
2022-08-22T09:30:13.136Z,36.39
2022-08-22T09:32:59.162Z,36.73
2022-08-22T09:35:39.993Z,36.91
2022-08-22T09:38:33.795Z,37.22
2022-08-22T09:41:20.765Z,37.54
2022-08-22T09:43:57.735Z,37.73
2022-08-22T09:46:36.910Z,37.69
2022-08-22T09:49:10.925Z,37.85
2022-08-22T09:51:49.294Z,38.06
2022-08-22T09:54:31.101Z,38.36
2022-08-22T09:57:15.414Z,38.47
2022-08-22T10:00:33.937Z,38.37
2022-08-22T10:03:16.041Z,38.17
2022-08-22T10:05:52.821Z,38.20
2022-08-22T10:08:46.848Z,38.44
2022-08-22T10:11:26.374Z,38.59
2022-08-22T10:14:01.977Z,38.43
2022-08-22T10:16:57.117Z,38.30
2022-08-22T10:19:32.045Z,38.30
2022-08-22T10:22:33.202Z,38.43
2022-08-22T10:25:25.002Z,38.43
2022-08-22T10:28:12.404Z,38.24
2022-08-22T10:30:54.740Z,37.90
2022-08-22T10:33:29.653Z,37.75
2022-08-22T10:36:11.746Z,37.78
2022-08-22T10:38:47.013Z,37.89
2022-08-22T10:41:29.328Z,37.98
2022-08-22T10:44:04.861Z,37.83
2022-08-22T10:46:45.885Z,37.64
2022-08-22T10:49:28.893Z,37.39
2022-08-22T10:52:15.264Z,37.32
2022-08-22T10:54:49.791Z,37.11
2022-08-22T10:57:54.709Z,36.97
2022-08-22T11:00:46.460Z,37.01
2022-08-22T11:03:27.807Z,37.28
2022-08-22T11:06:00.975Z,37.57
2022-08-22T11:09:00.032Z,37.72
2022-08-22T11:11:43.601Z,37.76
2022-08-22T11:14:45.143Z,37.66
2022-08-22T11:17:40.729Z,37.51
2022-08-22T11:20:21.256Z,37.35
2022-08-22T11:23:16.490Z,37.24
2022-08-22T11:26:04.940Z,37.32
2022-08-22T11:29:13.817Z,37.60
2022-08-22T11:31:53.318Z,37.86
2022-08-22T11:34:39.779Z,38.13
2022-08-22T11:37:19.659Z,38.30
2022-08-22T11:40:12.585Z,38.36
2022-08-22T11:42:47.800Z,38.36
2022-08-22T11:45:21.539Z,38.46
2022-08-22T11:48:01.524Z,38.43
2022-08-22T11:50:38.791Z,38.17
2022-08-22T11:53:22.991Z,38.03
2022-08-22T11:56:06.059Z,37.94
2022-08-22T11:58:53.929Z,37.94
2022-08-22T12:01:34.362Z,37.94
2022-08-22T12:04:14.643Z,37.82
2022-08-22T12:06:55.008Z,37.76
2022-08-22T12:09:45.776Z,37.86
2022-08-22T12:12:32.755Z,37.98
2022-08-22T12:15:10.730Z,37.81
2022-08-22T12:18:21.824Z,37.76
2022-08-22T12:21:11.540Z,37.78
2022-08-22T12:23:59.018Z,37.90
2022-08-22T12:26:46.815Z,38.17
2022-08-22T12:29:34.094Z,38.37
2022-08-22T12:32:55.583Z,38.63
2022-08-22T12:35:38.619Z,38.66
2022-08-22T12:38:31.264Z,38.66
2022-08-22T12:41:34.725Z,38.59
2022-08-22T12:44:43.840Z,38.77
2022-08-22T12:47:34.391Z,38.97
2022-08-22T12:50:21.547Z,39.04
2022-08-22T12:53:20.280Z,38.93
2022-08-22T12:56:05.977Z,38.54
2022-08-22T12:59:17.705Z,38.13
2022-08-22T13:01:49.369Z,37.72
2022-08-22T13:04:32.963Z,37.48
2022-08-22T13:07:23.137Z,37.28
2022-08-22T13:09:57.570Z,37.01
2022-08-22T13:12:36.368Z,36.87
2022-08-22T13:15:28.766Z,36.59
2022-08-22T13:18:13.208Z,36.42
2022-08-22T13:20:51.711Z,36.35
2022-08-22T13:23:25.917Z,36.35
2022-08-22T13:26:02.038Z,36.35
2022-08-22T13:28:33.355Z,36.25
2022-08-22T13:31:01.847Z,36.12
2022-08-22T13:33:35.214Z,35.98
2022-08-22T13:36:06.987Z,35.91
2022-08-22T13:38:46.441Z,35.89
2022-08-22T13:41:23.420Z,35.88
2022-08-22T13:44:13.544Z,35.82
2022-08-22T13:47:10.823Z,35.72
2022-08-22T13:49:34.773Z,35.77
2022-08-22T13:52:29.368Z,35.77
2022-08-22T13:55:09.195Z,35.72
2022-08-22T13:57:45.563Z,35.72
2022-08-22T14:01:15.368Z,35.79
2022-08-22T14:03:50.213Z,35.82
2022-08-22T14:06:37.934Z,35.95
2022-08-22T14:09:31.996Z,35.98
2022-08-22T14:12:12.800Z,36.08
2022-08-22T14:14:46.388Z,36.29
2022-08-22T14:17:22.640Z,36.62
2022-08-22T14:19:58.914Z,36.84
2022-08-22T14:22:34.927Z,36.98
2022-08-22T14:25:16.502Z,37.00
2022-08-22T14:27:57.072Z,36.88
2022-08-22T14:30:30.725Z,36.73
2022-08-22T14:33:11.744Z,36.57
2022-08-22T14:38:46.144Z,36.13
2022-08-22T14:41:28.569Z,35.93
2022-08-22T14:44:21.848Z,35.70
2022-08-22T14:46:56.265Z,35.50
2022-08-22T14:49:47.197Z,35.29
2022-08-22T14:52:35.064Z,35.14
2022-08-22T14:55:15.603Z,35.00
2022-08-22T14:57:51.072Z,34.89
2022-08-22T15:00:32.973Z,34.78
2022-08-22T15:03:15.942Z,34.67
2022-08-22T15:05:52.349Z,34.55
2022-08-22T15:08:29.208Z,34.45
2022-08-22T15:11:12.375Z,34.38
2022-08-22T15:13:50.387Z,34.35
2022-08-22T15:16:22.355Z,34.36
2022-08-22T15:18:51.976Z,34.48
2022-08-22T15:21:24.136Z,34.69
2022-08-22T15:23:55.546Z,34.86
2022-08-22T15:26:31.850Z,35.07
2022-08-22T15:29:18.334Z,35.23
2022-08-22T15:31:51.644Z,35.35
2022-08-22T15:34:31.450Z,35.50
2022-08-22T15:37:26.291Z,35.54
2022-08-22T15:40:11.678Z,35.57
2022-08-22T15:42:43.985Z,35.47
2022-08-22T15:45:36.620Z,35.41
2022-08-22T15:48:09.603Z,35.31
2022-08-22T15:50:56.639Z,35.20
2022-08-22T15:53:30.121Z,35.13
2022-08-22T15:56:25.947Z,35.15
2022-08-22T15:59:53.383Z,35.11
2022-08-22T16:02:30.013Z,34.99
2022-08-22T16:05:24.896Z,34.94
2022-08-22T16:08:08.841Z,34.80
2022-08-22T16:10:41.417Z,34.59
2022-08-22T16:13:28.200Z,34.36
2022-08-22T16:16:01.269Z,34.11
2022-08-22T16:19:23.621Z,33.92
2022-08-22T16:22:12.219Z,33.82
2022-08-22T16:25:16.120Z,33.82
2022-08-22T16:27:56.416Z,33.81
2022-08-22T16:30:37.698Z,33.82
2022-08-22T16:33:05.911Z,33.79
2022-08-22T16:36:38.762Z,33.91
2022-08-22T16:39:13.636Z,33.82
2022-08-22T16:41:43.645Z,33.78
2022-08-22T16:44:41.442Z,33.81
2022-08-22T16:47:18.549Z,33.71
2022-08-22T16:50:08.128Z,33.61
2022-08-22T16:53:01.038Z,33.46
2022-08-22T16:56:13.385Z,33.29
2022-08-22T16:59:38.300Z,33.10
2022-08-22T17:02:43.268Z,32.96
2022-08-22T17:05:39.965Z,32.82
2022-08-22T17:08:39.381Z,32.66
2022-08-22T17:11:26.163Z,32.51
2022-08-22T17:14:12.480Z,32.40
2022-08-22T17:16:57.953Z,32.31
2022-08-22T17:19:44.735Z,32.19
2022-08-22T17:22:28.989Z,32.11
2022-08-22T17:25:15.076Z,32.04
2022-08-22T17:27:50.111Z,31.94
2022-08-22T17:30:28.660Z,31.97
2022-08-22T17:33:27.861Z,31.95
2022-08-22T17:36:21.733Z,31.89
2022-08-22T17:39:09.183Z,31.84
2022-08-22T17:41:52.328Z,31.81
2022-08-22T17:44:32.978Z,31.70
2022-08-22T17:47:12.445Z,31.61
2022-08-22T17:49:54.010Z,31.56
2022-08-22T17:52:29.948Z,31.50
2022-08-22T17:55:04.527Z,31.37
2022-08-22T17:57:39.228Z,31.31
2022-08-22T18:00:52.804Z,31.29
2022-08-22T18:03:28.640Z,31.20
2022-08-22T18:06:07.140Z,31.17
2022-08-22T18:11:40.599Z,30.93
2022-08-22T18:14:21.251Z,30.82
2022-08-22T18:16:52.496Z,30.74
2022-08-22T18:19:42.062Z,30.71
2022-08-22T18:22:22.014Z,30.61
2022-08-22T18:25:01.214Z,30.59
2022-08-22T18:27:36.145Z,30.55
2022-08-22T18:33:18.820Z,30.47
2022-08-22T18:35:55.214Z,30.39
2022-08-22T18:38:31.783Z,30.38
2022-08-22T18:41:15.081Z,30.32
2022-08-22T18:43:45.990Z,30.28
2022-08-22T18:46:51.696Z,30.28
2022-08-22T18:49:45.181Z,30.24
2022-08-22T18:52:39.812Z,30.21
2022-08-22T18:55:30.372Z,30.07
2022-08-22T18:58:43.675Z,30.03
2022-08-22T19:01:44.654Z,29.94
2022-08-22T19:04:57.926Z,29.88
2022-08-22T19:07:58.486Z,29.83
2022-08-22T19:10:44.205Z,29.80
2022-08-22T19:13:55.843Z,29.76
2022-08-22T19:16:57.635Z,29.72
2022-08-22T19:19:48.338Z,29.67
2022-08-22T19:22:26.626Z,29.67
2022-08-22T19:25:22.376Z,29.70
2022-08-22T19:30:49.872Z,29.63
2022-08-22T19:33:27.618Z,29.57
2022-08-22T19:36:28.637Z,29.50
2022-08-22T19:39:01.427Z,29.49
2022-08-22T19:41:50.210Z,29.49
2022-08-22T19:44:40.049Z,29.43
2022-08-22T19:47:30.348Z,29.37
2022-08-22T19:50:05.464Z,29.30
2022-08-22T19:52:54.464Z,29.35
2022-08-22T19:55:40.588Z,29.35
2022-08-22T19:58:30.268Z,29.33
2022-08-22T20:01:32.952Z,29.25
2022-08-22T20:04:09.909Z,29.27
2022-08-22T20:06:50.871Z,29.35
2022-08-22T20:09:33.117Z,29.36
2022-08-22T20:12:15.525Z,29.32
2022-08-22T20:14:46.773Z,29.26
2022-08-22T20:17:40.376Z,29.27
2022-08-22T20:20:35.090Z,29.25
2022-08-22T20:23:11.845Z,29.11
2022-08-22T20:25:46.515Z,29.05
2022-08-22T20:28:37.848Z,29.06
2022-08-22T20:31:11.452Z,28.95
2022-08-22T20:33:46.068Z,28.94
2022-08-22T20:36:28.371Z,28.96
2022-08-22T20:39:02.947Z,28.90
2022-08-22T20:41:36.703Z,28.87
2022-08-22T20:44:13.552Z,28.76
2022-08-22T20:46:58.056Z,28.79
2022-08-22T20:49:28.502Z,28.74
2022-08-22T20:52:00.158Z,28.69
2022-08-22T20:54:30.898Z,28.64
2022-08-22T20:57:00.730Z,28.60
2022-08-22T20:59:35.984Z,28.63
2022-08-22T21:02:12.389Z,28.61
2022-08-22T21:04:47.862Z,28.60
2022-08-22T21:07:24.745Z,28.61
2022-08-22T21:10:05.572Z,28.65
2022-08-22T21:12:32.604Z,28.60
2022-08-22T21:14:59.536Z,28.64
2022-08-22T21:17:34.522Z,28.67
2022-08-22T21:20:19.341Z,28.64
2022-08-22T21:22:52.043Z,28.60
2022-08-22T21:25:19.141Z,28.60
2022-08-22T21:27:48.416Z,28.65
2022-08-22T21:30:25.198Z,28.64
2022-08-22T21:32:56.265Z,28.60
2022-08-22T21:35:31.698Z,28.51
2022-08-22T21:38:01.644Z,28.53
2022-08-22T21:40:38.305Z,28.54
2022-08-22T21:43:09.988Z,28.48
2022-08-22T21:45:44.144Z,28.43
2022-08-22T21:48:32.542Z,28.40
2022-08-22T21:51:22.160Z,28.33
2022-08-22T21:54:16.091Z,28.27
2022-08-22T21:56:37.849Z,28.24
2022-08-22T21:59:50.777Z,28.24
2022-08-22T22:02:34.213Z,28.21
2022-08-22T22:05:09.342Z,28.13
2022-08-22T22:07:39.275Z,28.17
2022-08-22T22:10:12.231Z,28.20
2022-08-22T22:12:40.410Z,28.16
2022-08-22T22:15:09.381Z,28.14
2022-08-22T22:17:36.495Z,28.10
2022-08-22T22:20:05.607Z,28.16
2022-08-22T22:22:33.966Z,28.16
2022-08-22T22:25:05.849Z,28.12
2022-08-22T22:27:54.374Z,28.12
2022-08-22T22:33:16.578Z,28.04
2022-08-22T22:35:44.469Z,27.99
2022-08-22T22:38:12.185Z,28.03
2022-08-22T22:40:40.115Z,28.02
2022-08-22T22:43:09.081Z,28.00
2022-08-22T22:45:36.554Z,27.96
2022-08-22T22:48:05.168Z,27.88
2022-08-22T22:50:32.825Z,27.82
2022-08-22T22:52:59.829Z,27.79
2022-08-22T22:55:26.918Z,27.65
2022-08-22T22:57:58.735Z,27.58
2022-08-22T23:00:31.106Z,27.59
2022-08-22T23:02:59.711Z,27.55
2022-08-22T23:05:27.215Z,27.48
2022-08-22T23:07:54.261Z,27.43
2022-08-22T23:10:22.266Z,27.42
2022-08-22T23:12:49.487Z,27.39
2022-08-22T23:15:16.668Z,27.38
2022-08-22T23:17:45.126Z,27.43
2022-08-22T23:20:12.648Z,27.42
2022-08-22T23:22:39.775Z,27.49
2022-08-22T23:25:07.306Z,27.51
2022-08-22T23:27:34.499Z,27.45
2022-08-22T23:30:01.340Z,27.45
2022-08-22T23:32:28.601Z,27.39
2022-08-22T23:34:57.102Z,27.41
2022-08-22T23:37:24.267Z,27.39
2022-08-22T23:39:51.251Z,27.38
2022-08-22T23:42:18.324Z,27.39
2022-08-22T23:44:45.945Z,27.35
2022-08-22T23:47:15.208Z,27.34
2022-08-22T23:49:43.351Z,27.31
2022-08-22T23:52:13.765Z,27.31
2022-08-22T23:54:40.705Z,27.31
2022-08-22T23:57:12.153Z,27.34
2022-08-22T23:59:46.209Z,27.31
